createdAt,value
2022-10-08T00:01:01.973Z,98883.19
2022-10-08T00:02:03.797Z,98874.59
2022-10-08T00:03:05.619Z,98881.78
2022-10-08T00:04:07.661Z,98886.06
2022-10-08T00:05:09.897Z,98885.25
2022-10-08T00:06:14.850Z,98880.97
2022-10-08T00:07:16.748Z,98880.41
2022-10-08T00:08:18.455Z,98881.22
2022-10-08T00:09:20.203Z,98879.34
2022-10-08T00:10:21.909Z,98878.31
2022-10-08T00:11:28.014Z,98883.88
2022-10-08T00:12:29.733Z,98879.94
2022-10-08T00:13:42.376Z,98876.44
2022-10-08T00:14:44.140Z,98876.22
2022-10-08T00:15:46.096Z,98882.59
2022-10-08T00:16:47.877Z,98885.25
2022-10-08T00:17:49.590Z,98886.88
2022-10-08T00:18:55.580Z,98880.72
2022-10-08T00:19:57.455Z,98879.94
2022-10-08T00:21:14.331Z,98886.69
2022-10-08T00:22:16.124Z,98887.50
2022-10-08T00:23:17.896Z,98879.94
2022-10-08T00:24:21.145Z,98887.50
2022-10-08T00:25:22.980Z,98880.72
2022-10-08T00:26:27.997Z,98889.53
2022-10-08T00:27:29.822Z,98887.50
2022-10-08T00:28:31.665Z,98886.44
2022-10-08T00:29:33.513Z,98884.81
2022-10-08T00:30:40.956Z,98877.63
2022-10-08T00:31:45.850Z,98880.28
2022-10-08T00:32:48.080Z,98880.06
2022-10-08T00:33:56.396Z,98881.09
2022-10-08T00:34:58.376Z,98880.28
2022-10-08T00:36:09.560Z,98881.91
2022-10-08T00:37:11.391Z,98881.91
2022-10-08T00:38:13.139Z,98882.72
2022-10-08T00:39:19.396Z,98880.88
2022-10-08T00:40:21.116Z,98879.00
2022-10-08T00:41:25.623Z,98880.63
2022-10-08T00:42:27.421Z,98878.22
2022-10-08T00:43:54.068Z,98876.13
2022-10-08T00:45:00.477Z,98882.25
2022-10-08T00:46:03.739Z,98878.78
2022-10-08T00:47:07.577Z,98880.41
2022-10-08T00:48:20.837Z,98877.72
2022-10-08T00:49:23.084Z,98879.16
2022-10-08T00:50:35.310Z,98879.97
2022-10-08T00:51:41.320Z,98883.44
2022-10-08T00:52:50.289Z,98879.16
2022-10-08T00:53:52.968Z,98877.28
2022-10-08T00:54:56.139Z,98874.41
2022-10-08T00:55:57.909Z,98871.53
2022-10-08T00:57:00.869Z,98878.47
2022-10-08T00:58:16.616Z,98867.56
2022-10-08T00:59:19.746Z,98865.94
2022-10-08T01:00:25.438Z,98868.63
2022-10-08T01:01:27.343Z,98865.94
2022-10-08T01:02:29.200Z,98865.72
2022-10-08T01:03:31.635Z,98864.91
2022-10-08T01:04:33.653Z,98864.91
2022-10-08T01:05:58.590Z,98859.91
2022-10-08T01:07:26.741Z,98862.81
2022-10-08T01:08:53.934Z,98859.91
2022-10-08T01:10:15.983Z,98864.19
2022-10-08T01:11:49.256Z,98867.91
2022-10-08T01:13:17.024Z,98864.66
2022-10-08T01:14:52.334Z,98862.81
2022-10-08T01:16:16.084Z,98862.00
2022-10-08T01:17:52.973Z,98864.09
2022-10-08T01:19:06.609Z,98858.75
2022-10-08T01:20:15.199Z,98862.72
2022-10-08T01:21:47.482Z,98862.47
2022-10-08T01:23:25.788Z,98857.38
2022-10-08T01:25:09.268Z,98852.84
2022-10-08T01:26:35.189Z,98853.09
2022-10-08T01:27:46.594Z,98855.97
2022-10-08T01:29:17.470Z,98862.91
2022-10-08T01:30:19.960Z,98856.16
2022-10-08T01:31:30.960Z,98855.34
2022-10-08T01:32:43.233Z,98855.16
2022-10-08T01:34:06.441Z,98856.56
2022-10-08T01:35:20.154Z,98861.28
2022-10-08T01:36:25.690Z,98854.31
2022-10-08T01:37:32.933Z,98857.81
2022-10-08T01:38:42.587Z,98855.97
2022-10-08T01:39:49.204Z,98856.78
2022-10-08T01:40:58.795Z,98859.44
2022-10-08T01:42:05.476Z,98854.91
2022-10-08T01:43:12.102Z,98854.72
2022-10-08T01:44:26.156Z,98855.50
2022-10-08T01:45:36.868Z,98852.03
2022-10-08T01:46:44.441Z,98852.84
2022-10-08T01:47:49.523Z,98857.94
2022-10-08T01:48:59.246Z,98857.13
2022-10-08T01:50:28.107Z,98855.84
2022-10-08T01:51:39.272Z,98857.94
2022-10-08T01:52:49.462Z,98852.63
2022-10-08T01:53:53.030Z,98856.31
2022-10-08T01:55:01.864Z,98857.13
2022-10-08T01:56:07.752Z,98859.81
2022-10-08T01:57:11.799Z,98852.63
2022-10-08T01:58:28.883Z,98854.47
2022-10-08T01:59:38.867Z,98857.13
2022-10-08T02:00:42.168Z,98854.47
2022-10-08T02:02:03.293Z,98842.75
2022-10-08T02:03:05.177Z,98851.81
2022-10-08T02:04:26.093Z,98839.50
2022-10-08T02:05:35.518Z,98849.94
2022-10-08T02:06:44.734Z,98849.56
2022-10-08T02:07:46.474Z,98844.25
2022-10-08T02:08:49.860Z,98838.09
2022-10-08T02:10:03.986Z,98844.03
2022-10-08T02:11:05.933Z,98840.75
2022-10-08T02:12:09.172Z,98846.31
2022-10-08T02:13:11.994Z,98851.44
2022-10-08T02:14:14.226Z,98849.81
2022-10-08T02:16:02.106Z,98850.63
2022-10-08T02:17:38.943Z,98852.03
2022-10-08T02:18:52.007Z,98851.44
2022-10-08T02:20:16.804Z,98854.91
2022-10-08T02:21:26.957Z,98846.09
2022-10-08T02:22:37.825Z,98845.50
2022-10-08T02:23:52.813Z,98843.63
2022-10-08T02:25:17.013Z,98846.91
2022-10-08T02:26:29.824Z,98844.25
2022-10-08T02:27:53.375Z,98850.19
2022-10-08T02:29:36.647Z,98846.47
2022-10-08T02:30:52.743Z,98846.47
2022-10-08T02:32:04.531Z,98842.41
2022-10-08T02:33:15.836Z,98842.19
2022-10-08T02:34:43.474Z,98850.19
2022-10-08T02:35:53.785Z,98848.31
2022-10-08T02:37:23.139Z,98842.75
2022-10-08T02:38:38.095Z,98839.03
2022-10-08T02:39:47.262Z,98846.22
2022-10-08T02:40:58.073Z,98848.09
2022-10-08T02:42:11.030Z,98850.53
2022-10-08T02:43:22.492Z,98850.75
2022-10-08T02:44:35.171Z,98846.22
2022-10-08T02:45:47.866Z,98847.63
2022-10-08T02:46:55.811Z,98854.00
2022-10-08T02:48:08.256Z,98856.66
2022-10-08T02:49:17.505Z,98853.19
2022-10-08T02:50:25.319Z,98856.66
2022-10-08T02:51:30.810Z,98857.47
2022-10-08T02:52:39.058Z,98864.66
2022-10-08T02:53:41.931Z,98855.84
2022-10-08T02:54:48.063Z,98856.09
2022-10-08T02:55:58.700Z,98857.72
2022-10-08T02:57:21.952Z,98865.72
2022-10-08T02:58:24.198Z,98861.19
2022-10-08T02:59:26.540Z,98862.22
2022-10-08T03:00:38.438Z,98863.03
2022-10-08T03:01:54.154Z,98863.84
2022-10-08T03:03:07.367Z,98867.34
2022-10-08T03:04:22.125Z,98865.47
2022-10-08T03:05:25.514Z,98866.53
2022-10-08T03:06:29.980Z,98865.94
2022-10-08T03:07:33.849Z,98864.91
2022-10-08T03:08:46.249Z,98866.75
2022-10-08T03:09:51.689Z,98867.81
2022-10-08T03:10:54.070Z,98866.75
2022-10-08T03:11:56.252Z,98867.00
2022-10-08T03:13:05.044Z,98867.56
2022-10-08T03:14:12.240Z,98868.84
2022-10-08T03:15:14.919Z,98871.28
2022-10-08T03:16:22.675Z,98867.56
2022-10-08T03:17:37.948Z,98870.00
2022-10-08T03:18:41.318Z,98870.00
2022-10-08T03:19:43.012Z,98875.56
2022-10-08T03:20:50.645Z,98879.84
2022-10-08T03:21:56.111Z,98875.56
2022-10-08T03:23:01.985Z,98871.84
2022-10-08T03:24:03.889Z,98873.72
2022-10-08T03:25:06.261Z,98871.28
2022-10-08T03:26:08.074Z,98877.66
2022-10-08T03:27:09.764Z,98875.81
2022-10-08T03:28:11.868Z,98872.91
2022-10-08T03:29:13.652Z,98864.31
2022-10-08T03:30:15.397Z,98868.63
2022-10-08T03:31:17.156Z,98871.53
2022-10-08T03:32:18.963Z,98869.44
2022-10-08T03:33:20.724Z,98871.53
2022-10-08T03:34:25.339Z,98875.00
2022-10-08T03:35:27.188Z,98877.66
2022-10-08T03:36:29.958Z,98876.84
2022-10-08T03:37:31.712Z,98880.34
2022-10-08T03:38:34.838Z,98887.28
2022-10-08T03:39:36.596Z,98876.84
2022-10-08T03:40:38.351Z,98886.25
2022-10-08T03:41:40.399Z,98881.94
2022-10-08T03:42:42.144Z,98885.66
2022-10-08T03:43:45.057Z,98883.00
2022-10-08T03:44:46.801Z,98886.47
2022-10-08T03:45:53.777Z,98887.28
2022-10-08T03:46:55.523Z,98891.56
2022-10-08T03:47:57.279Z,98894.47
2022-10-08T03:48:58.964Z,98897.16
2022-10-08T03:50:00.704Z,98893.66
2022-10-08T03:51:11.079Z,98900.63
2022-10-08T03:52:12.836Z,98891.81
2022-10-08T03:53:14.559Z,98891.00
2022-10-08T03:54:16.255Z,98896.34
2022-10-08T03:55:17.992Z,98899.00
2022-10-08T03:56:25.527Z,98892.84
2022-10-08T03:57:27.509Z,98892.03
2022-10-08T03:58:29.908Z,98896.56
2022-10-08T03:59:31.602Z,98896.56
2022-10-08T04:00:33.304Z,98906.19
2022-10-08T04:01:35.077Z,98906.19
2022-10-08T04:02:36.877Z,98904.34
2022-10-08T04:03:38.667Z,98905.38
2022-10-08T04:04:40.440Z,98910.72
2022-10-08T04:05:49.247Z,98903.28
2022-10-08T04:06:51.098Z,98911.28
2022-10-08T04:07:52.803Z,98904.09
2022-10-08T04:09:00.679Z,98902.47
2022-10-08T04:10:02.436Z,98902.47
2022-10-08T04:11:06.925Z,98913.72
2022-10-08T04:12:08.661Z,98908.63
2022-10-08T04:13:10.464Z,98910.25
2022-10-08T04:14:12.197Z,98911.28
2022-10-08T04:15:13.949Z,98911.06
2022-10-08T04:16:18.150Z,98915.34
2022-10-08T04:17:19.929Z,98908.63
2022-10-08T04:18:21.634Z,98917.19
2022-10-08T04:19:23.384Z,98915.56
2022-10-08T04:20:25.095Z,98917.19
2022-10-08T04:21:26.819Z,98912.09
2022-10-08T04:22:28.527Z,98915.34
2022-10-08T04:23:33.896Z,98915.34
2022-10-08T04:24:35.622Z,98915.34
2022-10-08T04:25:37.485Z,98919.88
2022-10-08T04:26:39.242Z,98915.56
2022-10-08T04:27:41.072Z,98912.09
2022-10-08T04:28:44.503Z,98914.53
2022-10-08T04:29:46.313Z,98921.72
2022-10-08T04:31:03.023Z,98916.97
2022-10-08T04:32:04.857Z,98916.38
2022-10-08T04:33:06.563Z,98918.47
2022-10-08T04:34:11.488Z,98915.81
2022-10-08T04:35:13.313Z,98917.66
2022-10-08T04:36:18.613Z,98916.06
2022-10-08T04:37:22.402Z,98928.78
2022-10-08T04:38:24.544Z,98929.59
2022-10-08T04:39:26.319Z,98928.78
2022-10-08T04:40:28.003Z,98931.44
2022-10-08T04:41:29.722Z,98935.16
2022-10-08T04:42:31.446Z,98932.69
2022-10-08T04:43:35.391Z,98933.75
2022-10-08T04:44:37.109Z,98937.22
2022-10-08T04:45:46.814Z,98934.53
2022-10-08T04:46:48.602Z,98932.13
2022-10-08T04:47:50.312Z,98930.25
2022-10-08T04:48:55.616Z,98924.13
2022-10-08T04:49:57.343Z,98932.34
2022-10-08T04:51:06.842Z,98932.34
2022-10-08T04:52:12.061Z,98938.25
2022-10-08T04:53:13.782Z,98935.81
2022-10-08T04:54:15.515Z,98943.81
2022-10-08T04:55:17.248Z,98938.50
2022-10-08T04:56:23.171Z,98939.31
2022-10-08T04:57:24.855Z,98942.22
2022-10-08T04:58:26.658Z,98937.91
2022-10-08T04:59:28.406Z,98944.06
2022-10-08T05:00:30.135Z,98943.47
2022-10-08T05:01:32.152Z,98942.88
2022-10-08T05:02:34.025Z,98945.09
2022-10-08T05:03:42.097Z,98944.06
2022-10-08T05:04:43.810Z,98950.44
2022-10-08T05:05:46.482Z,98943.47
2022-10-08T05:06:48.240Z,98934.88
2022-10-08T05:07:50.727Z,98950.06
2022-10-08T05:08:52.863Z,98942.28
2022-10-08T05:09:54.577Z,98941.50
2022-10-08T05:10:56.274Z,98951.09
2022-10-08T05:11:58.090Z,98943.91
2022-10-08T05:12:59.836Z,98947.88
2022-10-08T05:14:02.119Z,98952.16
2022-10-08T05:15:04.203Z,98947.88
2022-10-08T05:16:13.208Z,98943.56
2022-10-08T05:17:15.100Z,98945.44
2022-10-08T05:18:16.858Z,98943.56
2022-10-08T05:19:18.664Z,98946.47
2022-10-08T05:20:20.544Z,98948.34
2022-10-08T05:21:26.656Z,98943.00
2022-10-08T05:22:28.674Z,98952.03
2022-10-08T05:23:30.479Z,98955.53
2022-10-08T05:24:32.177Z,98954.72
2022-10-08T05:25:35.505Z,98949.38
2022-10-08T05:28:04.052Z,98953.09
2022-10-08T05:29:06.409Z,98949.59
2022-10-08T05:30:08.919Z,98960.28
2022-10-08T05:31:11.052Z,98957.81
2022-10-08T05:32:12.791Z,98955.38
2022-10-08T05:33:14.494Z,98962.56
2022-10-08T05:34:16.519Z,98954.56
2022-10-08T05:35:18.324Z,98960.13
2022-10-08T05:36:24.270Z,98963.84
2022-10-08T05:37:26.049Z,98962.22
2022-10-08T05:38:34.623Z,98966.50
2022-10-08T05:39:36.777Z,98964.88
2022-10-08T05:40:38.463Z,98968.59
2022-10-08T05:41:40.968Z,98970.69
2022-10-08T05:42:42.704Z,98970.69
2022-10-08T05:43:45.331Z,98972.53
2022-10-08T05:44:47.025Z,98978.66
2022-10-08T05:45:52.160Z,98973.53
2022-10-08T05:46:53.914Z,98977.06
2022-10-08T05:47:55.797Z,98978.28
2022-10-08T05:49:01.121Z,98972.16
2022-10-08T05:50:03.017Z,98975.84
2022-10-08T05:51:14.641Z,98978.88
2022-10-08T05:52:16.433Z,98972.16
2022-10-08T05:53:18.342Z,98975.84
2022-10-08T05:54:20.547Z,98972.59
2022-10-08T05:55:22.364Z,98966.25
2022-10-08T05:56:26.293Z,98969.94
2022-10-08T05:57:28.277Z,98974.22
2022-10-08T05:58:30.752Z,98971.00
2022-10-08T05:59:32.493Z,98972.59
2022-10-08T06:00:34.243Z,98975.28
2022-10-08T06:01:35.957Z,98977.94
2022-10-08T06:02:37.705Z,98970.19
2022-10-08T06:03:39.582Z,98974.69
2022-10-08T06:04:41.318Z,98979.22
2022-10-08T06:05:43.066Z,98979.22
2022-10-08T06:06:45.322Z,98972.50
2022-10-08T06:07:47.030Z,98982.91
2022-10-08T06:08:53.737Z,98984.16
2022-10-08T06:09:55.509Z,98985.59
2022-10-08T06:10:57.809Z,98976.78
2022-10-08T06:11:59.926Z,98988.69
2022-10-08T06:13:01.693Z,98974.78
2022-10-08T06:14:06.277Z,98984.16
2022-10-08T06:15:08.351Z,98986.00
2022-10-08T06:16:12.035Z,98983.59
2022-10-08T06:17:13.856Z,98990.75
2022-10-08T06:18:15.563Z,98992.38
2022-10-08T06:19:17.592Z,98992.38
2022-10-08T06:20:19.332Z,98989.94
2022-10-08T06:21:26.845Z,98989.38
2022-10-08T06:22:28.537Z,98995.28
2022-10-08T06:23:30.408Z,98999.22
2022-10-08T06:24:32.233Z,99000.25
2022-10-08T06:25:37.440Z,99009.88
2022-10-08T06:26:41.721Z,99009.66
2022-10-08T06:27:43.409Z,99009.66
2022-10-08T06:28:45.984Z,99010.69
2022-10-08T06:29:47.773Z,99014.16
2022-10-08T06:30:49.485Z,99019.50
2022-10-08T06:31:52.472Z,99013.34
2022-10-08T06:32:54.255Z,99012.91
2022-10-08T06:33:58.064Z,99014.97
2022-10-08T06:35:00.151Z,99017.41
2022-10-08T06:36:13.899Z,99016.38
2022-10-08T06:37:15.684Z,99020.66
2022-10-08T06:38:17.468Z,99025.19
2022-10-08T06:39:19.758Z,99023.34
2022-10-08T06:40:22.042Z,99024.13
2022-10-08T06:41:25.414Z,99027.63
2022-10-08T06:42:27.130Z,99028.47
2022-10-08T06:43:28.856Z,99029.03
2022-10-08T06:44:30.577Z,99023.72
2022-10-08T06:45:32.280Z,99026.38
2022-10-08T06:46:34.538Z,99026.16
2022-10-08T06:47:36.510Z,99027.78
2022-10-08T06:48:38.595Z,99028.00
2022-10-08T06:49:40.900Z,99036.59
2022-10-08T06:50:42.717Z,99026.50
2022-10-08T06:51:44.420Z,99031.84
2022-10-08T06:52:46.439Z,99030.78
2022-10-08T06:54:00.315Z,99037.53
2022-10-08T06:55:05.369Z,99036.50
2022-10-08T06:56:12.518Z,99039.16
2022-10-08T06:57:14.219Z,99035.69
2022-10-08T06:58:15.942Z,99043.47
2022-10-08T06:59:17.631Z,99041.84
2022-10-08T07:00:20.096Z,99045.09
2022-10-08T07:01:32.623Z,99048.56
2022-10-08T07:02:35.312Z,99050.41
2022-10-08T07:03:37.895Z,99055.75
2022-10-08T07:04:39.660Z,99052.84
2022-10-08T07:05:41.550Z,99052.28
2022-10-08T07:06:43.256Z,99059.81
2022-10-08T07:07:45.373Z,99056.09
2022-10-08T07:08:50.959Z,99051.81
2022-10-08T07:09:52.684Z,99054.25
2022-10-08T07:10:54.775Z,99060.41
2022-10-08T07:11:56.573Z,99057.50
2022-10-08T07:12:58.399Z,99056.47
2022-10-08T07:14:00.546Z,99060.97
2022-10-08T07:15:02.450Z,99061.59
2022-10-08T07:16:14.648Z,99064.25
2022-10-08T07:17:18.625Z,99066.69
2022-10-08T07:18:20.337Z,99068.31
2022-10-08T07:19:23.110Z,99063.78
2022-10-08T07:20:24.834Z,99071.56
2022-10-08T07:21:28.797Z,99070.28
2022-10-08T07:22:30.479Z,99075.63
2022-10-08T07:23:32.577Z,99072.72
2022-10-08T07:24:34.307Z,99073.78
2022-10-08T07:25:36.002Z,99080.28
2022-10-08T07:26:37.890Z,99077.41
2022-10-08T07:27:44.185Z,99080.06
2022-10-08T07:29:01.105Z,99084.50
2022-10-08T07:30:02.931Z,99091.47
2022-10-08T07:31:13.433Z,99090.47
2022-10-08T07:32:15.170Z,99089.63
2022-10-08T07:33:16.985Z,99088.00
2022-10-08T07:34:18.838Z,99088.59
2022-10-08T07:35:20.601Z,99093.72
2022-10-08T07:36:25.002Z,99088.94
2022-10-08T07:37:26.730Z,99090.56
2022-10-08T07:38:28.426Z,99086.88
2022-10-08T07:39:30.260Z,99086.41
2022-10-08T07:40:31.996Z,99097.88
2022-10-08T07:41:34.652Z,99088.03
2022-10-08T07:42:36.358Z,99091.53
2022-10-08T07:43:42.899Z,99095.00
2022-10-08T07:44:44.618Z,99089.44
2022-10-08T07:45:46.492Z,99089.22
2022-10-08T07:46:51.750Z,99092.69
2022-10-08T07:47:53.612Z,99095.13
2022-10-08T07:48:58.857Z,99091.44
2022-10-08T07:50:00.599Z,99095.72
2022-10-08T07:51:17.627Z,99097.09
2022-10-08T07:52:19.345Z,99095.47
2022-10-08T07:53:21.219Z,99090.97
2022-10-08T07:54:22.993Z,99098.53
2022-10-08T07:55:24.700Z,99095.06
2022-10-08T07:56:26.433Z,99097.50
2022-10-08T07:57:28.296Z,99101.78
2022-10-08T07:58:30.025Z,99101.78
2022-10-08T07:59:32.676Z,99103.97
2022-10-08T08:00:34.423Z,99108.28
2022-10-08T08:01:36.279Z,99108.03
2022-10-08T08:02:38.011Z,99107.63
2022-10-08T08:03:40.139Z,99105.75
2022-10-08T08:04:41.863Z,99108.19
2022-10-08T08:05:43.585Z,99107.72
2022-10-08T08:06:52.255Z,99106.69
2022-10-08T08:07:53.951Z,99109.94
2022-10-08T08:08:56.785Z,99110.75
2022-10-08T08:09:58.741Z,99116.69
2022-10-08T08:11:02.808Z,99116.44
2022-10-08T08:12:04.538Z,99109.25
2022-10-08T08:13:06.817Z,99120.75
2022-10-08T08:14:08.720Z,99107.97
2022-10-08T08:15:10.936Z,99115.19
2022-10-08T08:16:19.031Z,99116.81
2022-10-08T08:17:20.771Z,99118.44
2022-10-08T08:18:22.456Z,99116.34
2022-10-08T08:19:24.227Z,99119.00
2022-10-08T08:20:25.921Z,99124.72
2022-10-08T08:21:31.340Z,99117.53
2022-10-08T08:22:33.024Z,99120.75
2022-10-08T08:23:38.256Z,99118.09
2022-10-08T08:24:39.996Z,99128.78
2022-10-08T08:25:41.793Z,99119.25
2022-10-08T08:26:43.897Z,99124.59
2022-10-08T08:27:45.629Z,99122.31
2022-10-08T08:28:59.788Z,99118.34
2022-10-08T08:30:01.523Z,99120.78
2022-10-08T08:31:26.324Z,99123.59
2022-10-08T08:32:28.823Z,99123.34
2022-10-08T08:33:30.535Z,99127.44
2022-10-08T08:34:32.520Z,99127.22
2022-10-08T08:35:34.252Z,99123.84
2022-10-08T08:36:43.243Z,99121.78
2022-10-08T08:37:45.627Z,99124.22
2022-10-08T08:38:47.490Z,99122.94
2022-10-08T08:39:49.212Z,99124.88
2022-10-08T08:40:52.356Z,99132.47
2022-10-08T08:42:18.265Z,99131.50
2022-10-08T08:43:20.055Z,99127.78
2022-10-08T08:44:29.608Z,99130.25
2022-10-08T08:45:52.107Z,99132.47
2022-10-08T08:47:01.449Z,99129.31
2022-10-08T08:48:20.168Z,99131.50
2022-10-08T08:49:47.447Z,99128.97
2022-10-08T08:50:53.654Z,99131.41
2022-10-08T08:51:58.038Z,99130.34
2022-10-08T08:53:00.650Z,99137.91
2022-10-08T08:54:02.525Z,99132.09
2022-10-08T08:55:19.931Z,99133.25
2022-10-08T08:56:24.419Z,99136.25
2022-10-08T08:58:07.291Z,99139.28
2022-10-08T08:59:34.893Z,99131.94
2022-10-08T09:00:44.280Z,99145.66
2022-10-08T09:01:48.578Z,99138.22
2022-10-08T09:03:02.252Z,99136.72
2022-10-08T09:04:44.901Z,99138.72
2022-10-08T09:05:53.721Z,99137.97
2022-10-08T09:06:59.546Z,99130.78
2022-10-08T09:08:11.286Z,99136.69
2022-10-08T09:09:31.810Z,99141.34
2022-10-08T09:10:59.179Z,99140.88
2022-10-08T09:12:19.847Z,99143.53
2022-10-08T09:13:35.034Z,99148.41
2022-10-08T09:14:44.770Z,99142.81
2022-10-08T09:15:46.976Z,99144.47
2022-10-08T09:16:49.104Z,99147.47
2022-10-08T09:17:53.041Z,99150.72
2022-10-08T09:18:55.669Z,99141.63
2022-10-08T09:19:57.556Z,99153.72
2022-10-08T09:20:59.356Z,99147.31
2022-10-08T09:22:01.245Z,99152.66
2022-10-08T09:23:10.321Z,99154.88
2022-10-08T09:24:12.800Z,99148.50
2022-10-08T09:25:25.340Z,99149.28
2022-10-08T09:26:33.155Z,99151.72
2022-10-08T09:27:57.115Z,99147.50
2022-10-08T09:29:01.100Z,99148.94
2022-10-08T09:30:03.035Z,99141.47
2022-10-08T09:31:51.792Z,99152.59
2022-10-08T09:32:57.429Z,99151.31
2022-10-08T09:34:15.525Z,99149.53
2022-10-08T09:35:17.353Z,99162.81
2022-10-08T09:36:35.634Z,99155.66
2022-10-08T09:37:37.360Z,99157.16
2022-10-08T09:38:41.209Z,99156.75
2022-10-08T09:40:11.753Z,99166.66
2022-10-08T09:41:16.410Z,99159.28
2022-10-08T09:42:18.337Z,99165.06
2022-10-08T09:43:20.092Z,99167.56
2022-10-08T09:44:23.336Z,99161.78
2022-10-08T09:45:39.403Z,99165.88
2022-10-08T09:46:41.302Z,99171.53
2022-10-08T09:47:43.021Z,99171.25
2022-10-08T09:48:45.782Z,99171.38
2022-10-08T09:50:21.747Z,99166.06
2022-10-08T09:51:24.073Z,99170.34
2022-10-08T09:52:27.997Z,99171.19
2022-10-08T09:53:48.441Z,99168.22
2022-10-08T09:55:00.639Z,99169.84
2022-10-08T09:56:05.548Z,99166.53
2022-10-08T09:57:07.679Z,99171.84
2022-10-08T09:58:19.263Z,99168.72
2022-10-08T09:59:26.804Z,99173.38
2022-10-08T10:00:35.375Z,99166.72
2022-10-08T10:01:46.967Z,99168.75
2022-10-08T10:02:55.613Z,99170.97
2022-10-08T10:04:01.888Z,99173.78
2022-10-08T10:05:17.884Z,99165.16
2022-10-08T10:06:37.075Z,99161.13
2022-10-08T10:07:45.319Z,99170.78
2022-10-08T10:09:06.007Z,99166.28
2022-10-08T10:10:48.597Z,99170.53
2022-10-08T10:12:12.478Z,99171.19
2022-10-08T10:13:42.279Z,99157.66
2022-10-08T10:14:53.348Z,99163.72
2022-10-08T10:16:22.519Z,99164.81
2022-10-08T10:17:44.046Z,99172.66
2022-10-08T10:19:07.366Z,99170.72
2022-10-08T10:20:50.478Z,99162.91
2022-10-08T10:22:06.116Z,99166.50
2022-10-08T10:23:21.419Z,99164.69
2022-10-08T10:24:50.184Z,99164.41
2022-10-08T10:26:05.513Z,99164.81
2022-10-08T10:27:24.451Z,99165.81
2022-10-08T10:28:53.286Z,99171.06
2022-10-08T10:30:22.200Z,99170.56
2022-10-08T10:32:08.934Z,99165.28
2022-10-08T10:33:37.358Z,99163.81
2022-10-08T10:34:44.246Z,99167.56
2022-10-08T10:36:13.715Z,99166.66
2022-10-08T10:37:31.838Z,99168.13
2022-10-08T10:39:02.337Z,99160.13
2022-10-08T10:40:24.055Z,99163.28
2022-10-08T10:41:57.596Z,99158.25
2022-10-08T10:43:37.163Z,99160.53
2022-10-08T10:45:01.956Z,99155.13
2022-10-08T10:46:44.779Z,99149.38
2022-10-08T10:47:49.037Z,99157.03
2022-10-08T10:48:50.934Z,99161.16
2022-10-08T10:49:53.279Z,99149.75
2022-10-08T10:50:54.915Z,99158.88
2022-10-08T10:52:33.701Z,99159.41
2022-10-08T10:54:03.774Z,99158.38
2022-10-08T10:55:29.920Z,99158.00
2022-10-08T10:56:42.703Z,99155.53
2022-10-08T10:58:02.000Z,99151.63
2022-10-08T10:59:47.851Z,99159.09
2022-10-08T11:01:06.510Z,99163.66
2022-10-08T11:02:45.608Z,99157.69
2022-10-08T11:04:23.205Z,99157.75
2022-10-08T11:05:32.775Z,99162.63
2022-10-08T11:07:02.576Z,99158.81
2022-10-08T11:08:31.083Z,99158.25
2022-10-08T11:09:53.230Z,99158.13
2022-10-08T11:11:23.975Z,99158.13
2022-10-08T11:12:55.246Z,99153.53
2022-10-08T11:14:16.985Z,99152.59
2022-10-08T11:15:46.369Z,99151.59
2022-10-08T11:17:34.871Z,99154.16
2022-10-08T11:18:54.222Z,99156.69
2022-10-08T11:20:19.961Z,99152.38
2022-10-08T11:21:52.950Z,99154.81
2022-10-08T11:23:06.754Z,99151.13
2022-10-08T11:24:26.458Z,99150.19
2022-10-08T11:26:15.393Z,99150.22
2022-10-08T11:27:57.766Z,99157.81
2022-10-08T11:29:34.053Z,99149.16
2022-10-08T11:30:48.672Z,99148.69
2022-10-08T11:31:52.821Z,99140.03
2022-10-08T11:32:58.103Z,99149.84
2022-10-08T11:34:01.595Z,99154.03
2022-10-08T11:35:19.457Z,99153.69
2022-10-08T11:36:43.757Z,99146.97
2022-10-08T11:38:23.253Z,99150.44
2022-10-08T11:39:41.384Z,99163.72
2022-10-08T11:41:06.305Z,99157.28
2022-10-08T11:42:17.060Z,99160.03
2022-10-08T11:43:39.576Z,99157.91
2022-10-08T11:44:41.746Z,99159.53
2022-10-08T11:45:46.075Z,99156.63
2022-10-08T11:46:47.854Z,99161.41
2022-10-08T11:47:59.761Z,99165.72
2022-10-08T11:49:16.732Z,99151.25
2022-10-08T11:50:37.295Z,99163.41
2022-10-08T11:51:50.413Z,99154.75
2022-10-08T11:53:14.728Z,99149.13
2022-10-08T11:54:34.323Z,99152.94
2022-10-08T11:55:37.936Z,99148.28
2022-10-08T11:56:47.788Z,99153.22
2022-10-08T11:58:09.750Z,99151.66
2022-10-08T11:59:41.524Z,99155.50
2022-10-08T12:00:46.921Z,99151.34
2022-10-08T12:01:56.382Z,99151.41
2022-10-08T12:03:00.136Z,99153.53
2022-10-08T12:04:19.429Z,99154.69
2022-10-08T12:05:24.203Z,99155.53
2022-10-08T12:06:33.413Z,99149.34
2022-10-08T12:07:39.224Z,99150.75
2022-10-08T12:08:59.621Z,99153.38
2022-10-08T12:10:05.990Z,99160.81
2022-10-08T12:11:29.436Z,99160.69
2022-10-08T12:12:49.869Z,99155.94
2022-10-08T12:14:14.355Z,99158.47
2022-10-08T12:15:24.837Z,99157.41
2022-10-08T12:16:49.294Z,99157.13
2022-10-08T12:18:25.821Z,99155.44
2022-10-08T12:19:34.033Z,99153.03
2022-10-08T12:20:38.032Z,99153.50
2022-10-08T12:21:49.599Z,99160.22
2022-10-08T12:23:20.439Z,99151.22
2022-10-08T12:24:37.482Z,99154.69
2022-10-08T12:25:48.932Z,99158.03
2022-10-08T12:27:16.370Z,99150.84
2022-10-08T12:28:21.212Z,99152.25
2022-10-08T12:30:03.204Z,99161.25
2022-10-08T12:31:30.865Z,99153.44
2022-10-08T12:32:41.807Z,99143.19
2022-10-08T12:33:43.839Z,99144.88
2022-10-08T12:34:45.605Z,99143.25
2022-10-08T12:36:19.175Z,99148.69
2022-10-08T12:37:59.355Z,99135.97
2022-10-08T12:39:38.027Z,99135.66
2022-10-08T12:40:50.441Z,99131.88
2022-10-08T12:42:14.573Z,99137.78
2022-10-08T12:43:31.243Z,99132.91
2022-10-08T12:44:58.107Z,99141.56
2022-10-08T12:46:50.903Z,99131.78
2022-10-08T12:48:03.621Z,99137.41
2022-10-08T12:49:17.241Z,99138.72
2022-10-08T12:50:35.904Z,99141.19
2022-10-08T12:51:59.773Z,99143.00
2022-10-08T12:53:07.037Z,99136.78
2022-10-08T12:54:27.218Z,99147.03
2022-10-08T12:55:37.899Z,99136.72
2022-10-08T12:56:40.835Z,99131.06
2022-10-08T12:57:43.877Z,99134.81
2022-10-08T12:58:47.879Z,99139.44
2022-10-08T12:59:50.614Z,99135.66
2022-10-08T13:01:01.699Z,99133.19
2022-10-08T13:02:03.555Z,99134.78
2022-10-08T13:03:14.091Z,99132.59
2022-10-08T13:04:23.964Z,99129.59
2022-10-08T13:05:33.129Z,99125.78
2022-10-08T13:06:35.142Z,99131.19
2022-10-08T13:07:36.875Z,99130.09
2022-10-08T13:08:40.336Z,99136.34
2022-10-08T13:09:44.979Z,99132.00
2022-10-08T13:10:46.735Z,99137.13
2022-10-08T13:11:53.685Z,99138.72
2022-10-08T13:13:06.636Z,99137.34
2022-10-08T13:14:35.874Z,99138.94
2022-10-08T13:15:37.590Z,99144.91
2022-10-08T13:16:47.761Z,99142.19
2022-10-08T13:17:50.146Z,99144.91
2022-10-08T13:18:57.432Z,99141.09
2022-10-08T13:20:11.569Z,99148.13
2022-10-08T13:21:31.630Z,99148.13
2022-10-08T13:22:33.415Z,99141.09
2022-10-08T13:23:44.322Z,99144.63
2022-10-08T13:24:46.654Z,99148.41
2022-10-08T13:25:48.444Z,99143.00
2022-10-08T13:26:53.921Z,99137.28
2022-10-08T13:28:58.564Z,99142.19
2022-10-08T13:29:50.171Z,99140.00
2022-10-08T13:30:59.293Z,99150.03
2022-10-08T13:32:12.650Z,99147.63
2022-10-08T13:33:21.725Z,99146.25
2022-10-08T13:34:31.302Z,99147.94